sensor_id;sensor_type;location;lat;lon;timestamp;P1;durP1;ratioP1;P2;durP2;ratioP2
21761;SDS011;11203;50.870;20.682;2022-08-02T00:01:40;23.23;;;19.92;;
21761;SDS011;11203;50.870;20.682;2022-08-02T00:04:07;22.17;;;19.88;;
21761;SDS011;11203;50.870;20.682;2022-08-02T00:06:33;26.05;;;19.83;;
21761;SDS011;11203;50.870;20.682;2022-08-02T00:08:59;24.70;;;20.40;;
21761;SDS011;11203;50.870;20.682;2022-08-02T00:11:26;23.58;;;20.83;;
21761;SDS011;11203;50.870;20.682;2022-08-02T00:13:52;27.25;;;19.38;;
21761;SDS011;11203;50.870;20.682;2022-08-02T00:16:18;23.95;;;19.50;;
21761;SDS011;11203;50.870;20.682;2022-08-02T00:18:44;20.23;;;18.13;;
21761;SDS011;11203;50.870;20.682;2022-08-02T00:21:10;22.45;;;19.30;;
21761;SDS011;11203;50.870;20.682;2022-08-02T00:23:38;23.15;;;18.17;;
21761;SDS011;11203;50.870;20.682;2022-08-02T00:26:04;25.35;;;18.10;;
21761;SDS011;11203;50.870;20.682;2022-08-02T00:28:30;21.70;;;19.08;;
21761;SDS011;11203;50.870;20.682;2022-08-02T00:30:56;24.08;;;20.00;;
21761;SDS011;11203;50.870;20.682;2022-08-02T00:33:23;23.17;;;19.92;;
21761;SDS011;11203;50.870;20.682;2022-08-02T00:35:50;24.17;;;20.30;;
21761;SDS011;11203;50.870;20.682;2022-08-02T00:38:17;24.30;;;21.55;;
21761;SDS011;11203;50.870;20.682;2022-08-02T00:40:46;23.55;;;19.55;;
21761;SDS011;11203;50.870;20.682;2022-08-02T00:43:14;24.33;;;20.92;;
21761;SDS011;11203;50.870;20.682;2022-08-02T00:45:41;26.45;;;21.00;;
21761;SDS011;11203;50.870;20.682;2022-08-02T00:48:09;23.67;;;21.17;;
21761;SDS011;11203;50.870;20.682;2022-08-02T00:50:37;21.90;;;19.42;;
21761;SDS011;11203;50.870;20.682;2022-08-02T00:53:04;22.83;;;19.98;;
21761;SDS011;11203;50.870;20.682;2022-08-02T00:55:33;23.33;;;20.85;;
21761;SDS011;11203;50.870;20.682;2022-08-02T00:58:02;26.30;;;21.23;;
21761;SDS011;11203;50.870;20.682;2022-08-02T01:00:28;24.73;;;21.27;;
21761;SDS011;11203;50.870;20.682;2022-08-02T01:02:54;27.00;;;21.23;;
21761;SDS011;11203;50.870;20.682;2022-08-02T01:05:20;26.25;;;22.15;;
21761;SDS011;11203;50.870;20.682;2022-08-02T01:07:46;25.58;;;20.92;;
21761;SDS011;11203;50.870;20.682;2022-08-02T01:10:12;26.63;;;20.83;;
21761;SDS011;11203;50.870;20.682;2022-08-02T01:12:38;25.17;;;21.75;;
21761;SDS011;11203;50.870;20.682;2022-08-02T01:15:06;26.08;;;22.42;;
21761;SDS011;11203;50.870;20.682;2022-08-02T01:17:48;29.83;;;23.23;;
21761;SDS011;11203;50.870;20.682;2022-08-02T01:20:33;28.33;;;22.88;;
21761;SDS011;11203;50.870;20.682;2022-08-02T01:32:11;30.88;;;23.75;;
21761;SDS011;11203;50.870;20.682;2022-08-02T01:34:51;37.22;;;25.92;;
21761;SDS011;11203;50.870;20.682;2022-08-02T01:40:09;30.63;;;23.30;;
21761;SDS011;11203;50.870;20.682;2022-08-02T01:42:40;26.55;;;22.17;;
21761;SDS011;11203;50.870;20.682;2022-08-02T01:45:12;26.35;;;21.67;;
21761;SDS011;11203;50.870;20.682;2022-08-02T01:47:40;28.00;;;21.50;;
21761;SDS011;11203;50.870;20.682;2022-08-02T01:50:11;30.75;;;22.88;;
21761;SDS011;11203;50.870;20.682;2022-08-02T01:52:42;24.02;;;21.52;;
21761;SDS011;11203;50.870;20.682;2022-08-02T01:55:16;23.67;;;21.17;;
21761;SDS011;11203;50.870;20.682;2022-08-02T01:57:54;24.08;;;21.58;;
21761;SDS011;11203;50.870;20.682;2022-08-02T02:00:27;29.23;;;22.55;;
21761;SDS011;11203;50.870;20.682;2022-08-02T02:02:57;27.27;;;23.80;;
21761;SDS011;11203;50.870;20.682;2022-08-02T02:05:24;26.83;;;23.95;;
21761;SDS011;11203;50.870;20.682;2022-08-02T02:07:54;28.73;;;22.00;;
21761;SDS011;11203;50.870;20.682;2022-08-02T02:10:27;26.52;;;23.58;;
21761;SDS011;11203;50.870;20.682;2022-08-02T02:12:57;24.38;;;21.80;;
21761;SDS011;11203;50.870;20.682;2022-08-02T02:15:28;24.55;;;22.02;;
21761;SDS011;11203;50.870;20.682;2022-08-02T02:17:56;26.60;;;20.85;;
21761;SDS011;11203;50.870;20.682;2022-08-02T02:20:24;27.02;;;21.70;;
21761;SDS011;11203;50.870;20.682;2022-08-02T02:22:50;24.50;;;21.50;;
21761;SDS011;11203;50.870;20.682;2022-08-02T02:25:20;21.88;;;18.05;;
21761;SDS011;11203;50.870;20.682;2022-08-02T02:27:55;22.80;;;19.13;;
21761;SDS011;11203;50.870;20.682;2022-08-02T02:30:27;24.23;;;19.35;;
21761;SDS011;11203;50.870;20.682;2022-08-02T02:32:56;20.48;;;18.20;;
21761;SDS011;11203;50.870;20.682;2022-08-02T02:35:29;24.75;;;22.30;;
21761;SDS011;11203;50.870;20.682;2022-08-02T02:38:01;29.30;;;25.95;;
21761;SDS011;11203;50.870;20.682;2022-08-02T02:40:37;28.67;;;25.95;;
21761;SDS011;11203;50.870;20.682;2022-08-02T02:43:05;31.70;;;24.80;;
21761;SDS011;11203;50.870;20.682;2022-08-02T02:45:35;27.98;;;25.05;;
21761;SDS011;11203;50.870;20.682;2022-08-02T02:48:03;26.92;;;23.58;;
21761;SDS011;11203;50.870;20.682;2022-08-02T02:50:31;28.52;;;25.65;;
21761;SDS011;11203;50.870;20.682;2022-08-02T02:52:58;28.58;;;25.35;;
21761;SDS011;11203;50.870;20.682;2022-08-02T02:55:25;29.00;;;26.13;;
21761;SDS011;11203;50.870;20.682;2022-08-02T02:57:53;31.27;;;27.92;;
21761;SDS011;11203;50.870;20.682;2022-08-02T03:00:20;36.33;;;32.58;;
21761;SDS011;11203;50.870;20.682;2022-08-02T03:03:07;38.78;;;34.33;;
21761;SDS011;11203;50.870;20.682;2022-08-02T03:05:35;37.72;;;34.03;;
21761;SDS011;11203;50.870;20.682;2022-08-02T03:08:01;38.63;;;34.67;;
21761;SDS011;11203;50.870;20.682;2022-08-02T03:10:27;37.30;;;33.67;;
21761;SDS011;11203;50.870;20.682;2022-08-02T03:12:54;35.97;;;32.58;;
21761;SDS011;11203;50.870;20.682;2022-08-02T03:15:22;32.13;;;28.70;;
21761;SDS011;11203;50.870;20.682;2022-08-02T03:17:52;30.15;;;27.13;;
21761;SDS011;11203;50.870;20.682;2022-08-02T03:20:18;27.00;;;24.30;;
21761;SDS011;11203;50.870;20.682;2022-08-02T03:22:46;30.75;;;27.52;;
21761;SDS011;11203;50.870;20.682;2022-08-02T03:25:13;29.70;;;26.48;;
21761;SDS011;11203;50.870;20.682;2022-08-02T03:27:40;27.83;;;25.13;;
21761;SDS011;11203;50.870;20.682;2022-08-02T03:30:07;31.13;;;28.08;;
21761;SDS011;11203;50.870;20.682;2022-08-02T03:32:36;32.28;;;29.05;;
21761;SDS011;11203;50.870;20.682;2022-08-02T03:35:05;30.38;;;27.00;;
21761;SDS011;11203;50.870;20.682;2022-08-02T03:37:34;28.95;;;26.27;;
21761;SDS011;11203;50.870;20.682;2022-08-02T03:40:02;29.98;;;26.70;;
21761;SDS011;11203;50.870;20.682;2022-08-02T03:42:33;29.80;;;26.83;;
21761;SDS011;11203;50.870;20.682;2022-08-02T03:44:59;29.35;;;26.25;;
21761;SDS011;11203;50.870;20.682;2022-08-02T03:47:28;32.55;;;29.15;;
21761;SDS011;11203;50.870;20.682;2022-08-02T03:49:54;33.53;;;29.58;;
21761;SDS011;11203;50.870;20.682;2022-08-02T03:52:22;33.03;;;29.75;;
21761;SDS011;11203;50.870;20.682;2022-08-02T03:54:48;34.13;;;30.83;;
21761;SDS011;11203;50.870;20.682;2022-08-02T03:57:15;34.22;;;30.92;;
21761;SDS011;11203;50.870;20.682;2022-08-02T03:59:41;36.20;;;32.35;;
21761;SDS011;11203;50.870;20.682;2022-08-02T04:02:10;35.58;;;32.20;;
21761;SDS011;11203;50.870;20.682;2022-08-02T04:04:36;35.17;;;31.67;;
21761;SDS011;11203;50.870;20.682;2022-08-02T04:07:03;35.53;;;31.98;;
21761;SDS011;11203;50.870;20.682;2022-08-02T04:09:29;36.20;;;32.65;;
21761;SDS011;11203;50.870;20.682;2022-08-02T04:11:55;37.20;;;33.50;;
21761;SDS011;11203;50.870;20.682;2022-08-02T04:14:21;36.95;;;33.17;;
21761;SDS011;11203;50.870;20.682;2022-08-02T04:16:52;38.10;;;34.20;;
21761;SDS011;11203;50.870;20.682;2022-08-02T04:19:31;37.92;;;34.22;;
21761;SDS011;11203;50.870;20.682;2022-08-02T04:22:02;41.22;;;36.97;;
21761;SDS011;11203;50.870;20.682;2022-08-02T04:24:37;39.53;;;35.33;;
21761;SDS011;11203;50.870;20.682;2022-08-02T04:27:11;37.63;;;33.75;;
21761;SDS011;11203;50.870;20.682;2022-08-02T04:29:38;37.90;;;33.90;;
21761;SDS011;11203;50.870;20.682;2022-08-02T04:32:05;39.95;;;32.35;;
21761;SDS011;11203;50.870;20.682;2022-08-02T04:34:32;35.30;;;31.60;;
21761;SDS011;11203;50.870;20.682;2022-08-02T04:36:59;36.90;;;32.92;;
21761;SDS011;11203;50.870;20.682;2022-08-02T04:39:25;39.15;;;35.10;;
21761;SDS011;11203;50.870;20.682;2022-08-02T04:41:52;39.03;;;35.17;;
21761;SDS011;11203;50.870;20.682;2022-08-02T04:44:18;39.58;;;35.42;;
21761;SDS011;11203;50.870;20.682;2022-08-02T04:46:44;39.50;;;34.78;;
21761;SDS011;11203;50.870;20.682;2022-08-02T04:49:10;31.92;;;28.90;;
21761;SDS011;11203;50.870;20.682;2022-08-02T04:51:37;32.35;;;28.95;;
21761;SDS011;11203;50.870;20.682;2022-08-02T04:54:07;30.15;;;27.20;;
21761;SDS011;11203;50.870;20.682;2022-08-02T04:56:34;30.45;;;27.20;;
21761;SDS011;11203;50.870;20.682;2022-08-02T04:59:00;29.13;;;26.05;;
21761;SDS011;11203;50.870;20.682;2022-08-02T05:01:26;28.38;;;25.67;;
21761;SDS011;11203;50.870;20.682;2022-08-02T05:03:52;29.55;;;26.60;;
21761;SDS011;11203;50.870;20.682;2022-08-02T05:06:18;28.60;;;25.77;;
21761;SDS011;11203;50.870;20.682;2022-08-02T05:08:45;28.85;;;26.13;;
21761;SDS011;11203;50.870;20.682;2022-08-02T05:11:12;32.28;;;28.90;;
21761;SDS011;11203;50.870;20.682;2022-08-02T05:13:41;32.05;;;28.90;;
21761;SDS011;11203;50.870;20.682;2022-08-02T05:16:08;38.35;;;34.25;;
21761;SDS011;11203;50.870;20.682;2022-08-02T05:18:34;37.25;;;33.58;;
21761;SDS011;11203;50.870;20.682;2022-08-02T05:21:00;37.70;;;33.58;;
21761;SDS011;11203;50.870;20.682;2022-08-02T05:23:26;37.08;;;33.38;;
21761;SDS011;11203;50.870;20.682;2022-08-02T05:25:52;39.13;;;34.92;;
21761;SDS011;11203;50.870;20.682;2022-08-02T05:28:18;35.25;;;31.42;;
21761;SDS011;11203;50.870;20.682;2022-08-02T05:30:44;36.70;;;32.80;;
21761;SDS011;11203;50.870;20.682;2022-08-02T05:33:10;43.13;;;35.83;;
21761;SDS011;11203;50.870;20.682;2022-08-02T05:35:36;39.20;;;33.40;;
21761;SDS011;11203;50.870;20.682;2022-08-02T05:38:02;44.42;;;34.40;;
21761;SDS011;11203;50.870;20.682;2022-08-02T05:40:28;49.75;;;36.60;;
21761;SDS011;11203;50.870;20.682;2022-08-02T05:42:54;45.15;;;34.65;;
21761;SDS011;11203;50.870;20.682;2022-08-02T05:45:20;50.42;;;35.65;;
21761;SDS011;11203;50.870;20.682;2022-08-02T05:47:47;50.00;;;35.63;;
21761;SDS011;11203;50.870;20.682;2022-08-02T05:50:13;53.30;;;40.05;;
21761;SDS011;11203;50.870;20.682;2022-08-02T05:52:49;52.60;;;39.42;;
21761;SDS011;11203;50.870;20.682;2022-08-02T05:55:26;50.00;;;35.80;;
21761;SDS011;11203;50.870;20.682;2022-08-02T06:00:51;55.65;;;41.00;;
21761;SDS011;11203;50.870;20.682;2022-08-02T06:03:24;58.13;;;41.58;;
21761;SDS011;11203;50.870;20.682;2022-08-02T06:06:07;64.95;;;43.58;;
21761;SDS011;11203;50.870;20.682;2022-08-02T06:08:41;77.25;;;48.63;;
21761;SDS011;11203;50.870;20.682;2022-08-02T06:11:11;76.88;;;50.35;;
21761;SDS011;11203;50.870;20.682;2022-08-02T06:13:42;78.38;;;52.45;;
21761;SDS011;11203;50.870;20.682;2022-08-02T06:16:10;65.38;;;46.88;;
21761;SDS011;11203;50.870;20.682;2022-08-02T06:18:36;61.97;;;47.55;;
21761;SDS011;11203;50.870;20.682;2022-08-02T06:21:05;68.95;;;47.28;;
21761;SDS011;11203;50.870;20.682;2022-08-02T06:23:33;58.67;;;44.35;;
21761;SDS011;11203;50.870;20.682;2022-08-02T06:26:06;65.90;;;41.70;;
21761;SDS011;11203;50.870;20.682;2022-08-02T06:28:37;52.47;;;41.20;;
21761;SDS011;11203;50.870;20.682;2022-08-02T06:31:06;55.78;;;41.35;;
21761;SDS011;11203;50.870;20.682;2022-08-02T06:33:32;43.42;;;36.40;;
21761;SDS011;11203;50.870;20.682;2022-08-02T06:38:44;48.80;;;39.33;;
21761;SDS011;11203;50.870;20.682;2022-08-02T06:41:23;46.47;;;38.80;;
21761;SDS011;11203;50.870;20.682;2022-08-02T06:46:24;37.88;;;29.67;;
21761;SDS011;11203;50.870;20.682;2022-08-02T06:48:50;31.15;;;27.80;;
21761;SDS011;11203;50.870;20.682;2022-08-02T06:51:16;28.52;;;25.08;;
21761;SDS011;11203;50.870;20.682;2022-08-02T06:53:43;29.67;;;26.58;;
21761;SDS011;11203;50.870;20.682;2022-08-02T06:56:09;32.40;;;28.77;;
21761;SDS011;11203;50.870;20.682;2022-08-02T06:58:35;32.90;;;29.17;;
21761;SDS011;11203;50.870;20.682;2022-08-02T07:01:02;38.28;;;34.25;;
21761;SDS011;11203;50.870;20.682;2022-08-02T07:03:35;33.33;;;29.98;;
21761;SDS011;11203;50.870;20.682;2022-08-02T07:06:02;30.02;;;26.90;;
21761;SDS011;11203;50.870;20.682;2022-08-02T07:08:30;32.47;;;26.98;;
21761;SDS011;11203;50.870;20.682;2022-08-02T07:10:58;30.02;;;26.92;;
21761;SDS011;11203;50.870;20.682;2022-08-02T07:13:25;29.40;;;26.38;;
21761;SDS011;11203;50.870;20.682;2022-08-02T07:15:53;29.92;;;26.55;;
21761;SDS011;11203;50.870;20.682;2022-08-02T07:18:19;31.85;;;27.05;;
21761;SDS011;11203;50.870;20.682;2022-08-02T07:20:47;31.83;;;28.40;;
21761;SDS011;11203;50.870;20.682;2022-08-02T07:23:13;34.35;;;30.83;;
21761;SDS011;11203;50.870;20.682;2022-08-02T07:25:39;34.28;;;30.70;;
21761;SDS011;11203;50.870;20.682;2022-08-02T07:28:08;33.33;;;29.83;;
21761;SDS011;11203;50.870;20.682;2022-08-02T07:30:35;37.45;;;30.90;;
21761;SDS011;11203;50.870;20.682;2022-08-02T07:33:01;33.63;;;29.70;;
21761;SDS011;11203;50.870;20.682;2022-08-02T07:35:29;38.13;;;33.30;;
21761;SDS011;11203;50.870;20.682;2022-08-02T07:37:55;32.22;;;28.92;;
21761;SDS011;11203;50.870;20.682;2022-08-02T07:40:22;35.90;;;31.50;;
21761;SDS011;11203;50.870;20.682;2022-08-02T07:42:49;34.88;;;31.30;;
21761;SDS011;11203;50.870;20.682;2022-08-02T07:45:17;32.90;;;29.52;;
21761;SDS011;11203;50.870;20.682;2022-08-02T07:47:45;31.58;;;28.48;;
21761;SDS011;11203;50.870;20.682;2022-08-02T07:50:12;31.88;;;28.55;;
21761;SDS011;11203;50.870;20.682;2022-08-02T07:52:40;33.33;;;27.98;;
21761;SDS011;11203;50.870;20.682;2022-08-02T07:55:07;33.55;;;29.00;;
21761;SDS011;11203;50.870;20.682;2022-08-02T07:57:35;29.48;;;26.58;;
21761;SDS011;11203;50.870;20.682;2022-08-02T08:00:03;29.33;;;26.02;;
21761;SDS011;11203;50.870;20.682;2022-08-02T08:02:34;29.88;;;26.63;;
21761;SDS011;11203;50.870;20.682;2022-08-02T08:05:00;28.83;;;25.77;;
21761;SDS011;11203;50.870;20.682;2022-08-02T08:07:26;32.63;;;28.70;;
21761;SDS011;11203;50.870;20.682;2022-08-02T08:09:53;28.58;;;25.42;;
21761;SDS011;11203;50.870;20.682;2022-08-02T08:12:19;28.75;;;25.38;;
21761;SDS011;11203;50.870;20.682;2022-08-02T08:14:45;29.40;;;26.27;;
21761;SDS011;11203;50.870;20.682;2022-08-02T08:17:11;38.08;;;32.40;;
21761;SDS011;11203;50.870;20.682;2022-08-02T08:19:37;35.90;;;31.65;;
21761;SDS011;11203;50.870;20.682;2022-08-02T08:22:03;39.25;;;34.22;;
21761;SDS011;11203;50.870;20.682;2022-08-02T08:24:30;41.45;;;35.83;;
21761;SDS011;11203;50.870;20.682;2022-08-02T08:26:56;39.05;;;34.45;;
21761;SDS011;11203;50.870;20.682;2022-08-02T08:29:22;42.25;;;37.08;;
21761;SDS011;11203;50.870;20.682;2022-08-02T08:31:48;41.90;;;36.33;;
21761;SDS011;11203;50.870;20.682;2022-08-02T08:34:15;43.83;;;38.15;;
21761;SDS011;11203;50.870;20.682;2022-08-02T08:36:41;44.75;;;39.17;;
21761;SDS011;11203;50.870;20.682;2022-08-02T08:39:08;40.45;;;36.20;;
21761;SDS011;11203;50.870;20.682;2022-08-02T08:41:35;41.35;;;35.53;;
21761;SDS011;11203;50.870;20.682;2022-08-02T08:44:02;40.65;;;35.15;;
21761;SDS011;11203;50.870;20.682;2022-08-02T08:46:29;41.30;;;36.00;;
21761;SDS011;11203;50.870;20.682;2022-08-02T08:48:59;41.38;;;36.50;;
21761;SDS011;11203;50.870;20.682;2022-08-02T08:51:41;40.83;;;36.42;;
21761;SDS011;11203;50.870;20.682;2022-08-02T08:54:09;42.30;;;37.58;;
21761;SDS011;11203;50.870;20.682;2022-08-02T08:56:41;42.88;;;38.30;;
21761;SDS011;11203;50.870;20.682;2022-08-02T08:59:08;45.53;;;38.95;;
21761;SDS011;11203;50.870;20.682;2022-08-02T09:01:34;45.22;;;38.33;;
21761;SDS011;11203;50.870;20.682;2022-08-02T09:04:01;43.75;;;38.75;;
21761;SDS011;11203;50.870;20.682;2022-08-02T09:06:27;43.92;;;39.30;;
21761;SDS011;11203;50.870;20.682;2022-08-02T09:08:53;44.00;;;38.25;;
21761;SDS011;11203;50.870;20.682;2022-08-02T09:11:23;45.38;;;40.50;;
21761;SDS011;11203;50.870;20.682;2022-08-02T09:16:41;42.63;;;38.17;;
21761;SDS011;11203;50.870;20.682;2022-08-02T09:19:21;44.08;;;39.50;;
21761;SDS011;11203;50.870;20.682;2022-08-02T09:21:59;42.53;;;37.92;;
21761;SDS011;11203;50.870;20.682;2022-08-02T09:24:29;43.70;;;39.05;;
21761;SDS011;11203;50.870;20.682;2022-08-02T09:27:14;44.38;;;39.22;;
21761;SDS011;11203;50.870;20.682;2022-08-02T09:29:44;47.63;;;41.63;;
21761;SDS011;11203;50.870;20.682;2022-08-02T09:32:16;42.95;;;35.47;;
21761;SDS011;11203;50.870;20.682;2022-08-02T09:40:06;39.15;;;35.08;;
21761;SDS011;11203;50.870;20.682;2022-08-02T09:42:35;38.53;;;34.42;;
21761;SDS011;11203;50.870;20.682;2022-08-02T09:45:01;36.80;;;32.45;;
21761;SDS011;11203;50.870;20.682;2022-08-02T09:47:28;37.25;;;31.55;;
21761;SDS011;11203;50.870;20.682;2022-08-02T09:49:56;33.85;;;30.15;;
21761;SDS011;11203;50.870;20.682;2022-08-02T09:52:26;34.17;;;30.52;;
21761;SDS011;11203;50.870;20.682;2022-08-02T09:54:54;33.22;;;29.73;;
21761;SDS011;11203;50.870;20.682;2022-08-02T09:57:28;33.95;;;30.45;;
21761;SDS011;11203;50.870;20.682;2022-08-02T09:59:55;33.78;;;30.15;;
21761;SDS011;11203;50.870;20.682;2022-08-02T10:02:22;32.83;;;29.35;;
21761;SDS011;11203;50.870;20.682;2022-08-02T10:04:48;32.47;;;29.10;;
21761;SDS011;11203;50.870;20.682;2022-08-02T10:07:15;31.58;;;28.20;;
21761;SDS011;11203;50.870;20.682;2022-08-02T10:09:42;30.83;;;27.65;;
21761;SDS011;11203;50.870;20.682;2022-08-02T10:12:11;29.75;;;26.60;;
21761;SDS011;11203;50.870;20.682;2022-08-02T10:14:38;28.58;;;25.73;;
21761;SDS011;11203;50.870;20.682;2022-08-02T10:17:05;29.90;;;25.48;;
21761;SDS011;11203;50.870;20.682;2022-08-02T10:19:32;29.10;;;26.23;;
21761;SDS011;11203;50.870;20.682;2022-08-02T10:22:08;29.75;;;25.75;;
21761;SDS011;11203;50.870;20.682;2022-08-02T10:24:37;30.25;;;26.92;;
21761;SDS011;11203;50.870;20.682;2022-08-02T10:27:06;32.00;;;28.13;;
21761;SDS011;11203;50.870;20.682;2022-08-02T10:29:47;26.95;;;24.35;;
21761;SDS011;11203;50.870;20.682;2022-08-02T10:32:26;26.80;;;24.00;;
21761;SDS011;11203;50.870;20.682;2022-08-02T10:35:10;28.05;;;25.25;;
21761;SDS011;11203;50.870;20.682;2022-08-02T10:37:40;30.83;;;25.75;;
21761;SDS011;11203;50.870;20.682;2022-08-02T10:40:10;32.95;;;28.77;;
21761;SDS011;11203;50.870;20.682;2022-08-02T10:42:54;32.50;;;27.88;;
21761;SDS011;11203;50.870;20.682;2022-08-02T10:45:24;31.45;;;28.27;;
21761;SDS011;11203;50.870;20.682;2022-08-02T10:51:10;31.63;;;28.42;;
21761;SDS011;11203;50.870;20.682;2022-08-02T10:53:24;32.47;;;29.02;;
21761;SDS011;11203;50.870;20.682;2022-08-02T10:55:59;33.45;;;29.80;;
21761;SDS011;11203;50.870;20.682;2022-08-02T10:58:27;30.73;;;27.65;;
21761;SDS011;11203;50.870;20.682;2022-08-02T11:00:57;31.05;;;27.95;;
21761;SDS011;11203;50.870;20.682;2022-08-02T11:06:00;36.85;;;32.33;;
21761;SDS011;11203;50.870;20.682;2022-08-02T11:08:28;33.40;;;29.83;;
21761;SDS011;11203;50.870;20.682;2022-08-02T11:11:16;32.50;;;29.13;;
21761;SDS011;11203;50.870;20.682;2022-08-02T11:13:58;32.95;;;28.35;;
21761;SDS011;11203;50.870;20.682;2022-08-02T11:17:04;31.35;;;28.05;;
21761;SDS011;11203;50.870;20.682;2022-08-02T11:19:19;30.60;;;26.40;;
21761;SDS011;11203;50.870;20.682;2022-08-02T11:22:06;34.70;;;30.55;;
21761;SDS011;11203;50.870;20.682;2022-08-02T11:24:36;31.83;;;26.15;;
21761;SDS011;11203;50.870;20.682;2022-08-02T11:27:07;33.95;;;29.60;;
21761;SDS011;11203;50.870;20.682;2022-08-02T11:29:43;34.67;;;31.02;;
21761;SDS011;11203;50.870;20.682;2022-08-02T11:32:20;32.85;;;29.50;;
21761;SDS011;11203;50.870;20.682;2022-08-02T11:34:49;31.63;;;28.35;;
21761;SDS011;11203;50.870;20.682;2022-08-02T11:37:27;30.90;;;27.65;;
21761;SDS011;11203;50.870;20.682;2022-08-02T11:39:53;30.65;;;26.85;;
21761;SDS011;11203;50.870;20.682;2022-08-02T11:42:19;28.35;;;25.23;;
21761;SDS011;11203;50.870;20.682;2022-08-02T11:44:45;29.60;;;24.98;;
21761;SDS011;11203;50.870;20.682;2022-08-02T11:47:13;28.80;;;25.80;;
21761;SDS011;11203;50.870;20.682;2022-08-02T11:49:39;31.63;;;28.33;;
21761;SDS011;11203;50.870;20.682;2022-08-02T11:52:07;24.60;;;22.20;;
21761;SDS011;11203;50.870;20.682;2022-08-02T11:54:36;26.00;;;23.13;;
21761;SDS011;11203;50.870;20.682;2022-08-02T11:57:17;27.20;;;24.52;;
21761;SDS011;11203;50.870;20.682;2022-08-02T11:59:46;25.70;;;22.30;;
21761;SDS011;11203;50.870;20.682;2022-08-02T12:02:17;25.48;;;22.90;;
21761;SDS011;11203;50.870;20.682;2022-08-02T12:05:03;24.92;;;21.98;;
21761;SDS011;11203;50.870;20.682;2022-08-02T12:07:33;25.77;;;23.23;;
21761;SDS011;11203;50.870;20.682;2022-08-02T12:10:07;24.92;;;22.45;;
21761;SDS011;11203;50.870;20.682;2022-08-02T12:15:40;27.63;;;24.73;;
21761;SDS011;11203;50.870;20.682;2022-08-02T12:18:13;27.52;;;24.20;;
21761;SDS011;11203;50.870;20.682;2022-08-02T12:21:00;27.52;;;24.63;;
21761;SDS011;11203;50.870;20.682;2022-08-02T12:23:28;27.52;;;24.15;;
21761;SDS011;11203;50.870;20.682;2022-08-02T12:26:05;27.08;;;24.33;;
21761;SDS011;11203;50.870;20.682;2022-08-02T12:28:34;28.65;;;25.45;;
21761;SDS011;11203;50.870;20.682;2022-08-02T12:31:06;26.20;;;23.65;;
21761;SDS011;11203;50.870;20.682;2022-08-02T12:33:51;26.17;;;22.10;;
21761;SDS011;11203;50.870;20.682;2022-08-02T12:36:20;25.42;;;22.52;;
21761;SDS011;11203;50.870;20.682;2022-08-02T12:38:51;25.13;;;22.42;;
21761;SDS011;11203;50.870;20.682;2022-08-02T12:41:22;22.30;;;20.25;;
21761;SDS011;11203;50.870;20.682;2022-08-02T12:43:50;23.55;;;21.23;;
21761;SDS011;11203;50.870;20.682;2022-08-02T12:46:17;22.08;;;19.98;;
21761;SDS011;11203;50.870;20.682;2022-08-02T12:48:46;24.30;;;21.70;;
21761;SDS011;11203;50.870;20.682;2022-08-02T12:51:28;26.33;;;20.48;;
21761;SDS011;11203;50.870;20.682;2022-08-02T12:57:13;21.48;;;19.38;;
21761;SDS011;11203;50.870;20.682;2022-08-02T12:59:48;21.92;;;19.65;;
21761;SDS011;11203;50.870;20.682;2022-08-02T13:02:18;20.50;;;18.13;;
21761;SDS011;11203;50.870;20.682;2022-08-02T13:04:45;20.88;;;18.88;;
21761;SDS011;11203;50.870;20.682;2022-08-02T13:07:11;19.60;;;17.60;;
21761;SDS011;11203;50.870;20.682;2022-08-02T13:09:37;19.35;;;17.17;;
21761;SDS011;11203;50.870;20.682;2022-08-02T13:12:05;20.15;;;18.08;;
21761;SDS011;11203;50.870;20.682;2022-08-02T13:14:34;17.77;;;15.82;;
21761;SDS011;11203;50.870;20.682;2022-08-02T13:17:00;16.38;;;14.73;;
21761;SDS011;11203;50.870;20.682;2022-08-02T13:19:26;17.38;;;15.63;;
21761;SDS011;11203;50.870;20.682;2022-08-02T13:21:52;18.70;;;16.98;;
21761;SDS011;11203;50.870;20.682;2022-08-02T13:24:18;17.73;;;15.82;;
21761;SDS011;11203;50.870;20.682;2022-08-02T13:26:45;18.25;;;16.30;;
21761;SDS011;11203;50.870;20.682;2022-08-02T13:29:11;18.33;;;16.60;;
21761;SDS011;11203;50.870;20.682;2022-08-02T13:31:37;17.27;;;15.68;;
21761;SDS011;11203;50.870;20.682;2022-08-02T13:34:04;17.55;;;15.85;;
21761;SDS011;11203;50.870;20.682;2022-08-02T13:36:32;17.35;;;15.25;;
21761;SDS011;11203;50.870;20.682;2022-08-02T13:39:03;17.13;;;15.57;;
21761;SDS011;11203;50.870;20.682;2022-08-02T13:41:30;17.45;;;15.65;;
21761;SDS011;11203;50.870;20.682;2022-08-02T13:43:56;17.58;;;15.02;;
21761;SDS011;11203;50.870;20.682;2022-08-02T13:46:22;16.27;;;14.65;;
21761;SDS011;11203;50.870;20.682;2022-08-02T13:48:48;16.38;;;14.85;;
21761;SDS011;11203;50.870;20.682;2022-08-02T13:51:14;17.17;;;15.38;;
21761;SDS011;11203;50.870;20.682;2022-08-02T13:53:40;17.02;;;15.43;;
21761;SDS011;11203;50.870;20.682;2022-08-02T13:56:07;16.40;;;15.00;;
21761;SDS011;11203;50.870;20.682;2022-08-02T13:58:33;19.50;;;15.88;;
21761;SDS011;11203;50.870;20.682;2022-08-02T14:00:59;17.45;;;15.88;;
21761;SDS011;11203;50.870;20.682;2022-08-02T14:03:25;17.17;;;15.55;;
21761;SDS011;11203;50.870;20.682;2022-08-02T14:05:51;18.25;;;15.95;;
21761;SDS011;11203;50.870;20.682;2022-08-02T14:08:17;16.30;;;14.73;;
21761;SDS011;11203;50.870;20.682;2022-08-02T14:10:48;16.40;;;14.93;;
21761;SDS011;11203;50.870;20.682;2022-08-02T14:13:16;16.98;;;15.20;;
21761;SDS011;11203;50.870;20.682;2022-08-02T14:15:42;16.05;;;14.57;;
21761;SDS011;11203;50.870;20.682;2022-08-02T14:18:09;15.43;;;14.07;;
21761;SDS011;11203;50.870;20.682;2022-08-02T14:20:35;16.38;;;14.80;;
21761;SDS011;11203;50.870;20.682;2022-08-02T14:23:01;17.08;;;15.40;;
21761;SDS011;11203;50.870;20.682;2022-08-02T14:25:27;16.08;;;14.57;;
21761;SDS011;11203;50.870;20.682;2022-08-02T14:27:53;15.90;;;14.30;;
21761;SDS011;11203;50.870;20.682;2022-08-02T14:30:19;15.15;;;13.68;;
21761;SDS011;11203;50.870;20.682;2022-08-02T14:32:47;14.65;;;13.35;;
21761;SDS011;11203;50.870;20.682;2022-08-02T14:35:13;15.25;;;13.82;;
21761;SDS011;11203;50.870;20.682;2022-08-02T14:37:40;14.82;;;13.55;;
21761;SDS011;11203;50.870;20.682;2022-08-02T14:40:07;15.48;;;14.13;;
21761;SDS011;11203;50.870;20.682;2022-08-02T14:42:33;15.85;;;14.50;;
21761;SDS011;11203;50.870;20.682;2022-08-02T14:44:59;15.43;;;14.00;;
21761;SDS011;11203;50.870;20.682;2022-08-02T14:47:26;16.40;;;14.80;;
21761;SDS011;11203;50.870;20.682;2022-08-02T14:49:53;16.30;;;14.70;;
21761;SDS011;11203;50.870;20.682;2022-08-02T14:52:19;17.08;;;15.38;;
21761;SDS011;11203;50.870;20.682;2022-08-02T14:54:45;15.77;;;14.27;;
21761;SDS011;11203;50.870;20.682;2022-08-02T14:57:11;15.55;;;13.95;;
21761;SDS011;11203;50.870;20.682;2022-08-02T14:59:37;16.55;;;14.88;;